Time;durP1;ratioP1;P1;durP2;ratioP2;P2;SDS_P1;SDS_P2;PMS_P1;PMS_P2;Temp;Humidity;BMP_temperature;BMP_pressure;BME280_temperature;BME280_humidity;BME280_pressure;Samples;Min_cycle;Max_cycle;Signal;HPM_P1;HPM_P2
2022/07/25 00:01:42;;;;;;;5.57;2.50;;;24.20;99.90;;;;;;5006868;28;20049;-70
2022/07/25 00:04:08;;;;;;;4.38;2.50;;;24.20;99.90;;;;;;5036841;28;20046;-70
2022/07/25 00:06:34;;;;;;;3.67;2.53;;;24.20;99.90;;;;;;5038842;28;20041;-70
2022/07/25 00:09:00;;;;;;;4.10;2.65;;;24.20;99.90;;;;;;5014846;28;20050;-70
2022/07/25 00:11:26;;;;;;;3.67;2.70;;;24.20;99.90;;;;;;5032364;28;20120;-70
2022/07/25 00:13:51;;;;;;;4.15;2.70;;;24.10;99.90;;;;;;5032020;28;20558;-70
2022/07/25 00:16:17;;;;;;;3.92;2.78;;;24.10;99.90;;;;;;5025938;28;20498;-70
2022/07/25 00:18:43;;;;;;;3.45;2.67;;;24.10;99.90;;;;;;5040039;28;20093;-70
2022/07/25 00:21:09;;;;;;;4.43;2.50;;;24.10;99.90;;;;;;5027606;28;20085;-69
2022/07/25 00:23:35;;;;;;;3.95;2.70;;;24.00;99.90;;;;;;5028731;28;20056;-70
2022/07/25 00:26:00;;;;;;;4.07;2.95;;;24.00;99.90;;;;;;5036574;28;20061;-69
2022/07/25 00:28:26;;;;;;;3.50;2.60;;;24.00;99.90;;;;;;5028135;28;20132;-70
2022/07/25 00:30:51;;;;;;;4.57;2.70;;;24.00;99.90;;;;;;5014856;28;20396;-69
2022/07/25 00:33:17;;;;;;;3.70;2.90;;;24.00;99.90;;;;;;5013775;28;20050;-70
2022/07/25 00:35:43;;;;;;;5.50;3.05;;;23.90;99.90;;;;;;5031494;28;20045;-70
2022/07/25 00:38:08;;;;;;;10.98;3.45;;;24.00;99.90;;;;;;5034532;28;20040;-69
2022/07/25 00:40:35;;;;;;;12.18;3.45;;;23.90;99.90;;;;;;5040909;28;20079;-69
2022/07/25 00:43:01;;;;;;;7.80;3.00;;;23.90;99.90;;;;;;5019571;28;20481;-69
2022/07/25 00:45:27;;;;;;;4.05;3.08;;;23.90;99.90;;;;;;5032355;28;20119;-69
2022/07/25 00:47:52;;;;;;;5.80;3.00;;;23.90;99.90;;;;;;5027897;28;20033;-69
2022/07/25 00:50:18;;;;;;;4.65;2.88;;;23.90;99.90;;;;;;5032934;28;20041;-70
2022/07/25 00:52:44;;;;;;;7.45;3.08;;;23.70;99.90;;;;;;5028227;28;20037;-69
2022/07/25 00:55:11;;;;;;;3.50;2.78;;;23.80;99.90;;;;;;5027884;28;20151;-70
2022/07/25 00:57:37;;;;;;;5.68;3.00;;;23.70;99.90;;;;;;5020847;28;20069;-69
2022/07/25 01:00:07;;;;;;;5.07;3.40;;;23.80;99.90;;;;;;5013692;28;20068;-69
2022/07/25 01:02:33;;;;;;;4.75;3.50;;;23.80;99.90;;;;;;5031539;28;20060;-69
2022/07/25 01:04:58;;;;;;;4.60;3.28;;;23.70;99.90;;;;;;5011783;28;20393;-69
2022/07/25 01:07:25;;;;;;;8.52;3.50;;;23.70;99.90;;;;;;5030774;28;20037;-69
2022/07/25 01:09:51;;;;;;;6.85;3.53;;;23.70;99.90;;;;;;5030227;28;20433;-69
2022/07/25 01:12:17;;;;;;;5.55;3.53;;;23.70;99.90;;;;;;5030704;28;20095;-69
2022/07/25 01:14:42;;;;;;;5.03;3.60;;;23.60;99.90;;;;;;5031294;28;20605;-69
2022/07/25 01:17:08;;;;;;;5.32;3.60;;;23.60;99.90;;;;;;5032527;28;20094;-69
2022/07/25 01:19:33;;;;;;;9.93;3.80;;;23.60;99.90;;;;;;5014520;28;20033;-69
2022/07/25 01:21:59;;;;;;;5.60;3.75;;;23.60;99.90;;;;;;5031630;28;20114;-72
2022/07/25 01:24:25;;;;;;;5.95;4.13;;;23.60;99.90;;;;;;5030147;28;20049;-70
2022/07/25 01:26:50;;;;;;;5.95;4.03;;;23.50;99.90;;;;;;5030255;28;20041;-69
2022/07/25 01:29:16;;;;;;;5.68;4.22;;;23.50;99.90;;;;;;5030523;28;20037;-70
2022/07/25 01:31:42;;;;;;;4.70;4.10;;;23.50;99.90;;;;;;5030093;28;20147;-70
2022/07/25 01:34:07;;;;;;;8.98;4.15;;;23.50;99.90;;;;;;5014140;28;20049;-70
2022/07/25 01:36:33;;;;;;;7.78;4.28;;;23.50;99.90;;;;;;5032373;28;20119;-70
2022/07/25 01:38:59;;;;;;;7.53;4.68;;;23.40;99.90;;;;;;5032043;28;20081;-69
2022/07/25 01:41:24;;;;;;;6.80;4.47;;;23.40;99.90;;;;;;5032139;28;20144;-70
2022/07/25 01:43:50;;;;;;;5.68;4.60;;;23.40;99.90;;;;;;5013268;28;20045;-69
2022/07/25 01:46:16;;;;;;;6.82;4.68;;;23.40;99.90;;;;;;5030423;28;20112;-69
2022/07/25 01:48:41;;;;;;;8.63;5.05;;;23.30;99.90;;;;;;5031635;28;20046;-70
2022/07/25 01:51:09;;;;;;;6.07;4.55;;;23.40;99.90;;;;;;5030610;28;20389;-70
2022/07/25 01:53:35;;;;;;;7.18;5.38;;;23.30;99.90;;;;;;5012481;28;20559;-70
2022/07/25 01:56:01;;;;;;;5.43;4.60;;;23.30;99.90;;;;;;5030603;28;20374;-69
2022/07/25 01:58:26;;;;;;;7.57;5.20;;;23.30;99.90;;;;;;5030335;28;20033;-70
2022/07/25 02:00:52;;;;;;;7.57;5.30;;;23.30;99.90;;;;;;5031179;28;20037;-69
2022/07/25 02:03:30;;;;;;;7.55;4.97;;;23.30;99.90;;;;;;5032084;28;20371;-70
2022/07/25 02:06:01;;;;;;;7.90;5.53;;;23.20;99.90;;;;;;5032783;28;20124;-69
2022/07/25 02:08:28;;;;;;;8.27;5.80;;;23.10;99.90;;;;;;5006972;28;20132;-70
2022/07/25 02:10:55;;;;;;;8.80;5.47;;;23.10;99.90;;;;;;5033927;28;20528;-69
2022/07/25 02:13:21;;;;;;;8.45;5.45;;;23.10;99.90;;;;;;5038426;28;20454;-69
2022/07/25 02:15:47;;;;;;;7.88;5.43;;;23.10;99.90;;;;;;5029133;28;20077;-70
2022/07/25 02:18:12;;;;;;;8.20;5.60;;;23.00;99.90;;;;;;5025666;28;20045;-71
2022/07/25 02:20:39;;;;;;;5.75;5.03;;;23.10;99.90;;;;;;5032863;28;20080;-70
2022/07/25 02:23:05;;;;;;;6.97;5.05;;;23.00;99.90;;;;;;5039487;28;20077;-69
2022/07/25 02:25:31;;;;;;;8.15;5.40;;;23.00;99.90;;;;;;5031234;28;20054;-70
2022/07/25 02:27:57;;;;;;;7.15;5.00;;;23.00;99.90;;;;;;5034549;28;20555;-70
2022/07/25 02:30:22;;;;;;;9.02;5.00;;;23.00;99.90;;;;;;5034579;28;20037;-70
2022/07/25 02:32:48;;;;;;;6.90;5.28;;;22.90;99.90;;;;;;5017237;28;20046;-70
2022/07/25 02:35:14;;;;;;;8.20;5.72;;;22.90;99.90;;;;;;5017210;28;20124;-69
2022/07/25 02:37:40;;;;;;;8.60;5.63;;;22.90;99.90;;;;;;5034887;28;20540;-70
2022/07/25 02:40:06;;;;;;;7.38;5.45;;;22.90;99.90;;;;;;5034333;28;20052;-70
2022/07/25 02:42:32;;;;;;;10.60;6.13;;;22.90;99.90;;;;;;5038036;28;20103;-70
2022/07/25 02:44:57;;;;;;;6.93;5.32;;;22.90;99.90;;;;;;5025067;28;20133;-70
2022/07/25 02:47:23;;;;;;;8.88;5.60;;;22.90;99.90;;;;;;5039222;28;20063;-70
2022/07/25 02:49:48;;;;;;;8.60;5.70;;;23.00;99.90;;;;;;5035842;28;20088;-70
2022/07/25 02:52:17;;;;;;;9.60;5.50;;;23.00;99.90;;;;;;5045422;28;20379;-69
2022/07/25 02:54:42;;;;;;;7.82;5.93;;;23.00;99.90;;;;;;5034660;28;20111;-70
2022/07/25 02:57:08;;;;;;;8.82;5.65;;;23.00;99.90;;;;;;5034668;28;20045;-70
2022/07/25 02:59:33;;;;;;;7.43;5.25;;;23.00;99.90;;;;;;5034067;28;20512;-69
2022/07/25 03:01:59;;;;;;;7.95;5.38;;;23.00;99.90;;;;;;5034935;28;20044;-69
2022/07/25 03:04:25;;;;;;;10.40;5.80;;;23.00;99.90;;;;;;5016910;28;20041;-70
2022/07/25 03:06:51;;;;;;;8.27;5.20;;;23.00;99.90;;;;;;5033083;28;20150;-69
2022/07/25 03:09:16;;;;;;;7.78;5.43;;;23.00;99.90;;;;;;5031857;28;20041;-70
2022/07/25 03:11:42;;;;;;;7.38;5.78;;;23.20;99.90;;;;;;5025709;28;20034;-70
2022/07/25 03:14:08;;;;;;;8.23;5.65;;;23.00;99.90;;;;;;5033829;28;20045;-70
2022/07/25 03:16:33;;;;;;;8.77;5.90;;;23.00;99.90;;;;;;5030181;28;20095;-70
2022/07/25 03:18:59;;;;;;;8.32;6.00;;;23.00;99.90;;;;;;5039335;28;20064;-69
2022/07/25 03:21:24;;;;;;;10.18;6.20;;;22.90;99.90;;;;;;5013243;28;20107;-70
2022/07/25 03:23:50;;;;;;;9.63;5.95;;;23.00;99.90;;;;;;5015888;28;20076;-70
2022/07/25 03:26:16;;;;;;;8.70;6.00;;;23.00;99.90;;;;;;5034152;28;20076;-70
2022/07/25 03:28:41;;;;;;;7.50;5.57;;;23.00;99.90;;;;;;5015926;28;20052;-69
2022/07/25 03:31:07;;;;;;;7.40;5.53;;;22.90;99.90;;;;;;5016002;28;20038;-69
2022/07/25 03:33:32;;;;;;;10.95;6.53;;;23.00;99.90;;;;;;5032929;28;20057;-69
2022/07/25 03:35:58;;;;;;;9.13;6.47;;;22.90;99.90;;;;;;5034157;28;20050;-69
2022/07/25 03:38:23;;;;;;;8.57;6.50;;;22.90;99.90;;;;;;5015826;28;20498;-69
2022/07/25 03:40:49;;;;;;;7.68;6.38;;;22.90;99.90;;;;;;5035518;28;20057;-69
2022/07/25 03:43:15;;;;;;;10.27;6.65;;;22.90;99.90;;;;;;5038925;28;20048;-69
2022/07/25 03:45:41;;;;;;;9.05;6.80;;;22.80;99.90;;;;;;5042864;28;20037;-69
2022/07/25 03:48:06;;;;;;;9.57;6.75;;;22.80;99.90;;;;;;5017716;28;20057;-69
2022/07/25 03:50:32;;;;;;;10.90;6.72;;;22.80;99.90;;;;;;5035574;28;20075;-69
2022/07/25 03:52:58;;;;;;;10.40;7.45;;;22.80;99.90;;;;;;5035412;28;20465;-69
2022/07/25 03:55:23;;;;;;;8.70;6.90;;;22.80;99.90;;;;;;5053487;28;20401;-69
2022/07/25 03:57:49;;;;;;;13.18;7.18;;;22.70;99.90;;;;;;5038881;28;20091;-69
2022/07/25 04:00:16;;;;;;;10.80;7.10;;;22.70;99.90;;;;;;5015676;28;20402;-69
2022/07/25 04:02:42;;;;;;;9.80;7.35;;;22.70;99.90;;;;;;5015516;28;20052;-69
2022/07/25 04:05:08;;;;;;;10.02;7.15;;;22.60;99.90;;;;;;5033523;28;20450;-70
2022/07/25 04:07:35;;;;;;;16.13;7.65;;;22.70;99.90;;;;;;5033554;28;20046;-70
2022/07/25 04:10:01;;;;;;;10.55;7.75;;;22.70;99.90;;;;;;5033101;28;20076;-70
2022/07/25 04:12:27;;;;;;;9.45;7.57;;;22.60;99.90;;;;;;5015312;28;20096;-69
2022/07/25 04:14:52;;;;;;;13.23;7.93;;;22.60;99.90;;;;;;5037253;28;20629;-69
2022/07/25 04:17:18;;;;;;;9.85;7.20;;;22.60;99.90;;;;;;5038746;28;20339;-70
2022/07/25 04:19:43;;;;;;;10.23;7.38;;;22.60;99.90;;;;;;5037021;28;20456;-69
2022/07/25 04:22:09;;;;;;;10.93;7.57;;;22.60;99.90;;;;;;5038996;28;20037;-70
2022/07/25 04:24:35;;;;;;;11.73;7.55;;;22.60;99.90;;;;;;5035512;28;20080;-69
2022/07/25 04:27:00;;;;;;;11.00;7.80;;;22.60;99.90;;;;;;5032918;28;20091;-70
2022/07/25 04:29:26;;;;;;;11.07;7.75;;;22.60;99.90;;;;;;5031277;28;20046;-70
2022/07/25 04:31:52;;;;;;;13.73;8.05;;;22.50;99.90;;;;;;5031748;28;20482;-70
2022/07/25 04:34:17;;;;;;;11.02;8.45;;;22.50;99.90;;;;;;5031347;28;20053;-70
2022/07/25 04:36:43;;;;;;;10.40;7.85;;;22.50;99.90;;;;;;5032233;28;20482;-69
2022/07/25 04:39:08;;;;;;;10.15;8.20;;;22.50;99.90;;;;;;5041553;28;20040;-69
2022/07/25 04:41:34;;;;;;;11.10;8.13;;;22.50;99.90;;;;;;5039280;28;20045;-69
2022/07/25 04:44:00;;;;;;;13.18;8.13;;;22.50;99.90;;;;;;5041559;28;20067;-69
2022/07/25 04:46:25;;;;;;;13.32;8.35;;;22.50;99.90;;;;;;5014910;28;20388;-70
2022/07/25 04:48:51;;;;;;;9.77;8.23;;;22.50;99.90;;;;;;5014690;28;20049;-69
2022/07/25 04:51:17;;;;;;;13.45;8.15;;;22.50;99.90;;;;;;5032102;28;20029;-70
2022/07/25 04:53:43;;;;;;;10.35;8.40;;;22.50;99.90;;;;;;5032258;28;20053;-69
2022/07/25 04:56:09;;;;;;;12.57;7.97;;;22.50;99.90;;;;;;5039322;28;20041;-69
2022/07/25 04:58:35;;;;;;;13.23;8.35;;;22.50;99.90;;;;;;5039597;28;20053;-69
2022/07/25 05:01:00;;;;;;;14.75;8.27;;;22.50;99.90;;;;;;5031857;28;20041;-70
2022/07/25 05:03:26;;;;;;;12.38;8.23;;;22.50;99.90;;;;;;5032113;28;20486;-69
2022/07/25 05:05:52;;;;;;;10.20;8.88;;;22.50;99.90;;;;;;5032234;28;20475;-70
2022/07/25 05:08:17;;;;;;;11.18;8.60;;;22.40;99.90;;;;;;5032572;28;20048;-70
2022/07/25 05:10:43;;;;;;;10.27;8.65;;;22.50;99.90;;;;;;5013578;28;20080;-70
2022/07/25 05:13:08;;;;;;;12.75;8.55;;;22.50;99.90;;;;;;5038344;28;20034;-69
2022/07/25 05:15:35;;;;;;;15.30;8.93;;;22.50;99.90;;;;;;5039469;28;20068;-70
2022/07/25 05:18:01;;;;;;;13.23;9.18;;;22.50;99.90;;;;;;5039429;28;20047;-70
2022/07/25 05:20:27;;;;;;;17.27;9.10;;;22.50;99.90;;;;;;5034360;28;20386;-69
2022/07/25 05:22:52;;;;;;;12.93;9.05;;;22.50;99.90;;;;;;5030864;28;20510;-70
2022/07/25 05:25:19;;;;;;;12.15;9.13;;;22.50;99.90;;;;;;5031861;28;20084;-69
2022/07/25 05:27:45;;;;;;;11.57;9.15;;;22.60;99.90;;;;;;5032958;28;20452;-75
2022/07/25 05:30:12;;;;;;;11.32;8.90;;;22.70;99.90;;;;;;5035516;28;20052;-74
2022/07/25 05:32:39;;;;;;;13.02;9.80;;;22.70;99.90;;;;;;5030226;28;20052;-74
2022/07/25 05:35:06;;;;;;;11.15;9.43;;;22.70;99.90;;;;;;5031018;28;20049;-74
2022/07/25 05:37:33;;;;;;;14.15;10.30;;;22.70;99.90;;;;;;5030934;28;20053;-74
2022/07/25 05:39:59;;;;;;;11.90;10.00;;;22.70;99.90;;;;;;5032960;28;20045;-74
2022/07/25 05:42:25;;;;;;;14.77;10.35;;;22.60;99.90;;;;;;5016651;28;20049;-74
2022/07/25 05:44:50;;;;;;;13.15;9.80;;;22.60;99.90;;;;;;5036410;28;20046;-74
2022/07/25 05:47:16;;;;;;;12.23;10.52;;;22.50;99.90;;;;;;5036617;28;20376;-75
2022/07/25 05:49:42;;;;;;;14.02;10.32;;;22.50;99.90;;;;;;5031862;28;20049;-75
2022/07/25 05:52:07;;;;;;;14.80;11.02;;;22.50;99.90;;;;;;5036031;28;20123;-75
2022/07/25 05:54:34;;;;;;;13.88;11.45;;;22.40;99.90;;;;;;5017595;28;20045;-74
2022/07/25 05:57:00;;;;;;;12.85;10.45;;;22.50;99.90;;;;;;5035692;28;20394;-75
2022/07/25 05:59:26;;;;;;;13.43;10.82;;;22.50;99.90;;;;;;5035585;28;20414;-75
2022/07/25 06:01:52;;;;;;;11.75;10.15;;;22.60;99.90;;;;;;5035202;28;20037;-75
2022/07/25 06:04:18;;;;;;;12.55;10.43;;;22.60;99.90;;;;;;5034673;28;20044;-75
2022/07/25 06:06:49;;;;;;;15.15;9.88;;;22.70;99.90;;;;;;5035478;28;20119;-75
2022/07/25 06:09:21;;;;;;;14.27;11.07;;;23.00;99.90;;;;;;5035377;28;20051;-75
2022/07/25 06:11:48;;;;;;;14.20;11.40;;;22.70;99.90;;;;;;5035377;28;20087;-75
2022/07/25 06:14:14;;;;;;;15.38;11.35;;;22.70;99.90;;;;;;5034910;28;20490;-75
2022/07/25 06:16:40;;;;;;;15.18;11.82;;;22.70;99.90;;;;;;5016198;28;20049;-75
2022/07/25 06:19:06;;;;;;;12.82;10.88;;;22.70;99.90;;;;;;5034660;28;20401;-75
2022/07/25 06:21:32;;;;;;;12.85;11.02;;;22.70;99.90;;;;;;5017539;28;20045;-75
2022/07/25 06:23:57;;;;;;;13.75;10.65;;;22.70;99.90;;;;;;5035019;28;20037;-75
2022/07/25 06:26:23;;;;;;;12.63;10.95;;;22.80;99.90;;;;;;5033709;28;20128;-75
2022/07/25 06:28:50;;;;;;;14.73;10.77;;;22.90;99.90;;;;;;5015837;28;20120;-75
2022/07/25 06:31:15;;;;;;;14.77;10.82;;;22.90;99.90;;;;;;5034519;28;20153;-76
2022/07/25 06:33:41;;;;;;;14.68;11.38;;;22.90;99.90;;;;;;5032953;28;20128;-75
2022/07/25 06:36:07;;;;;;;12.65;10.75;;;22.90;99.90;;;;;;5019751;28;20090;-75
2022/07/25 06:38:32;;;;;;;12.13;10.82;;;23.00;99.90;;;;;;5041125;28;20053;-75
2022/07/25 06:40:58;;;;;;;12.98;10.75;;;23.20;99.90;;;;;;5033129;28;20042;-75
2022/07/25 06:43:24;;;;;;;15.20;10.10;;;23.10;99.90;;;;;;5042942;28;20034;-76
2022/07/25 06:45:50;;;;;;;12.77;10.18;;;23.10;99.90;;;;;;5014607;28;20501;-75
2022/07/25 06:48:16;;;;;;;14.93;10.25;;;23.20;99.90;;;;;;5043491;28;20378;-75
2022/07/25 06:50:42;;;;;;;11.43;10.07;;;23.30;99.90;;;;;;5038277;28;20366;-77
2022/07/25 06:53:08;;;;;;;12.23;9.57;;;23.40;99.90;;;;;;5016708;28;20402;-76
2022/07/25 06:55:33;;;;;;;11.73;9.75;;;23.60;99.90;;;;;;5036272;28;20033;-76
2022/07/25 06:57:59;;;;;;;15.10;9.85;;;23.70;99.90;;;;;;5048059;28;20052;-85
2022/07/25 07:00:25;;;;;;;11.18;8.95;;;23.80;99.90;;;;;;5017515;28;20101;-85
2022/07/25 07:02:56;;;;;;;12.55;9.45;;;23.80;99.90;;;;;;5035140;28;20041;-84
2022/07/25 07:05:27;;;;;;;12.43;9.57;;;23.80;99.90;;;;;;5034789;28;20037;-85
2022/07/25 07:07:53;;;;;;;14.60;10.02;;;23.80;99.90;;;;;;5035279;28;20517;-85
2022/07/25 07:10:20;;;;;;;11.80;9.73;;;23.90;99.90;;;;;;5035244;28;20041;-85
2022/07/25 07:12:46;;;;;;;13.02;10.05;;;23.80;99.90;;;;;;5042796;28;20141;-85
2022/07/25 07:15:12;;;;;;;13.68;9.48;;;23.80;99.90;;;;;;5055188;28;20048;-85
2022/07/25 07:17:38;;;;;;;14.27;9.98;;;23.90;99.90;;;;;;5052463;28;20424;-84
2022/07/25 07:20:06;;;;;;;13.52;9.75;;;23.90;99.90;;;;;;5017604;28;20482;-81
2022/07/25 07:22:31;;;;;;;14.38;9.63;;;24.00;99.90;;;;;;5039701;28;20482;-80
2022/07/25 07:24:57;;;;;;;12.60;9.05;;;24.00;99.90;;;;;;5015956;28;20053;-81
2022/07/25 07:27:23;;;;;;;12.30;9.10;;;24.00;99.90;;;;;;5049393;28;20405;-81
2022/07/25 07:29:49;;;;;;;13.32;9.70;;;24.10;99.90;;;;;;5036398;28;20034;-83
2022/07/25 07:32:15;;;;;;;11.18;9.18;;;24.20;99.90;;;;;;5039954;28;20064;-82
2022/07/25 07:34:41;;;;;;;15.02;10.45;;;24.30;99.90;;;;;;5016966;28;20050;-81
2022/07/25 07:37:06;;;;;;;12.73;9.23;;;24.40;99.90;;;;;;5015576;28;20109;-82
2022/07/25 07:39:32;;;;;;;13.57;9.50;;;24.40;99.90;;;;;;5014352;28;20050;-81
2022/07/25 07:41:58;;;;;;;11.48;9.40;;;24.40;99.90;;;;;;5014353;28;20139;-79
2022/07/25 07:44:23;;;;;;;11.85;9.32;;;24.40;99.90;;;;;;5013447;28;20048;-81
2022/07/25 07:46:49;;;;;;;11.85;9.43;;;24.30;99.90;;;;;;4997055;28;20078;-82
2022/07/25 07:49:14;;;;;;;14.75;8.00;;;24.30;99.90;;;;;;5016850;28;20486;-82
2022/07/25 07:51:40;;;;;;;11.30;8.07;;;24.40;99.90;;;;;;5016506;28;20041;-85
2022/07/25 07:56:50;;;;;;;11.45;7.68;;;24.50;99.90;;;;;;5015158;28;20403;-85
2022/07/25 07:59:16;;;;;;;14.73;8.27;;;24.70;99.90;;;;;;5013407;28;20044;-85
2022/07/25 08:01:41;;;;;;;11.98;7.82;;;24.70;99.90;;;;;;5013088;28;20121;-84
2022/07/25 08:04:07;;;;;;;11.98;7.30;;;24.70;99.90;;;;;;5011301;28;20045;-84
2022/07/25 08:06:33;;;;;;;10.38;7.50;;;24.70;99.90;;;;;;5014291;28;20038;-84
2022/07/25 08:08:58;;;;;;;9.32;6.95;;;24.70;99.90;;;;;;5014400;28;20469;-85
2022/07/25 08:11:25;;;;;;;9.43;7.43;;;24.80;99.90;;;;;;5014139;28;20121;-85
2022/07/25 08:13:51;;;;;;;11.65;6.88;;;24.80;99.90;;;;;;4997174;28;20050;-85
2022/07/25 08:16:17;;;;;;;10.27;7.15;;;24.90;99.90;;;;;;5015116;28;20046;-85
2022/07/25 08:18:43;;;;;;;11.63;6.90;;;24.90;99.90;;;;;;5014407;28;20038;-84
2022/07/25 08:21:09;;;;;;;10.63;7.32;;;24.90;99.90;;;;;;5013005;28;20171;-85
2022/07/25 08:23:37;;;;;;;9.85;7.05;;;24.90;99.90;;;;;;5014295;28;20053;-84
2022/07/25 08:26:03;;;;;;;9.20;6.93;;;25.00;99.90;;;;;;5013447;28;20049;-85
2022/07/25 08:28:29;;;;;;;9.70;6.97;;;25.00;99.90;;;;;;5014500;28;20073;-85
2022/07/25 08:30:55;;;;;;;9.45;7.10;;;25.00;99.90;;;;;;5013198;28;20467;-84
2022/07/25 08:33:20;;;;;;;9.05;6.63;;;25.10;99.90;;;;;;5010695;28;20482;-84
2022/07/25 08:35:48;;;;;;;9.18;6.35;;;25.10;99.90;;;;;;5032136;28;20049;-83
2022/07/25 08:38:14;;;;;;;9.68;5.82;;;25.10;99.90;;;;;;5012957;28;20497;-81
2022/07/25 08:40:40;;;;;;;12.75;6.70;;;25.00;99.90;;;;;;5031465;28;20049;-86
2022/07/25 08:43:11;;;;;;;11.55;7.20;;;24.90;99.90;;;;;;5030713;28;20497;-82
2022/07/25 08:45:50;;;;;;;9.20;6.35;;;24.80;99.90;;;;;;5027948;28;20041;-83
2022/07/25 08:48:18;;;;;;;10.43;6.60;;;24.70;99.90;;;;;;5030996;28;20045;-83
2022/07/25 08:50:45;;;;;;;11.70;6.18;;;24.60;99.90;;;;;;5008241;28;20107;-83
2022/07/25 08:53:12;;;;;;;9.10;6.22;;;24.50;99.90;;;;;;5030618;28;20375;-84
2022/07/25 08:55:38;;;;;;;10.02;6.30;;;24.50;99.90;;;;;;5030603;28;20494;-74
2022/07/25 08:58:04;;;;;;;9.55;6.22;;;24.50;99.90;;;;;;5030279;28;20682;-73
2022/07/25 09:00:30;;;;;;;7.30;6.03;;;24.40;99.90;;;;;;5011638;28;20044;-73
2022/07/25 09:03:01;;;;;;;10.05;5.70;;;24.30;99.90;;;;;;5013203;28;20046;-73
2022/07/25 09:05:30;;;;;;;6.50;4.85;;;24.40;99.90;;;;;;5031931;28;20441;-73
2022/07/25 09:07:57;;;;;;;7.18;4.60;;;24.40;99.90;;;;;;5032292;28;20052;-73
2022/07/25 09:10:26;;;;;;;9.75;4.65;;;24.60;99.90;;;;;;5032081;28;20125;-74
2022/07/25 09:12:53;;;;;;;8.23;4.40;;;24.50;99.90;;;;;;5032044;28;20402;-73
2022/07/25 09:15:40;;;;;;;7.53;3.75;;;24.70;99.90;;;;;;5031553;28;20057;-73
2022/07/25 09:18:08;;;;;;;6.35;3.50;;;24.80;99.90;;;;;;5032046;28;20418;-73
2022/07/25 09:20:41;;;;;;;10.38;3.67;;;24.90;99.90;;;;;;5028985;28;20041;-74
2022/07/25 09:23:08;;;;;;;6.93;3.25;;;25.00;99.90;;;;;;5013728;28;20495;-74
2022/07/25 09:25:34;;;;;;;6.90;2.70;;;24.90;99.90;;;;;;5032003;28;20056;-74
2022/07/25 09:28:17;;;;;;;5.95;2.85;;;25.10;99.90;;;;;;5031917;28;20411;-73
2022/07/25 09:31:00;;;;;;;9.70;3.35;;;25.20;99.90;;;;;;5031667;28;20064;-73
2022/07/25 09:33:27;;;;;;;4.75;2.70;;;25.30;99.90;;;;;;5031391;28;20136;-74
2022/07/25 09:35:54;;;;;;;10.75;2.92;;;25.30;99.90;;;;;;5030706;28;20406;-73
2022/07/25 09:38:21;;;;;;;9.75;2.55;;;25.40;99.90;;;;;;5032021;28;20479;-74
2022/07/25 09:40:54;;;;;;;5.00;2.55;;;25.40;99.90;;;;;;5031360;28;20351;-74
2022/07/25 09:43:20;;;;;;;5.00;2.47;;;25.50;99.90;;;;;;5030514;28;20418;-74
2022/07/25 09:45:50;;;;;;;5.32;2.40;;;25.50;99.90;;;;;;5031777;28;20046;-73
2022/07/25 09:48:18;;;;;;;4.10;2.20;;;25.60;99.90;;;;;;5031976;28;20049;-74
2022/07/25 09:50:44;;;;;;;4.30;2.20;;;25.70;99.90;;;;;;5030627;28;20060;-73
2022/07/25 09:53:11;;;;;;;5.20;2.30;;;25.70;99.90;;;;;;5029872;28;20045;-73
2022/07/25 09:55:36;;;;;;;5.82;2.40;;;25.80;99.90;;;;;;5031647;28;20490;-73
2022/07/25 09:58:02;;;;;;;4.60;1.92;;;25.60;99.90;;;;;;5031824;28;20132;-74
2022/07/25 10:00:31;;;;;;;5.43;2.10;;;25.60;99.90;;;;;;5031489;28;20088;-73
2022/07/25 10:03:21;;;;;;;3.10;1.90;;;25.50;99.90;;;;;;5031450;28;20513;-74
2022/07/25 10:06:07;;;;;;;3.03;1.95;;;25.40;99.90;;;;;;5031154;28;20060;-73
2022/07/25 10:08:37;;;;;;;3.60;1.95;;;25.40;99.90;;;;;;5029695;28;20041;-74
2022/07/25 10:11:05;;;;;;;3.55;1.95;;;25.60;99.90;;;;;;5013583;28;20053;-74
2022/07/25 10:13:33;;;;;;;3.17;1.90;;;25.70;99.90;;;;;;5030490;28;20037;-74
2022/07/25 10:16:00;;;;;;;3.00;1.92;;;25.50;99.90;;;;;;5028970;28;20045;-74
2022/07/25 10:18:27;;;;;;;4.13;2.40;;;25.50;99.90;;;;;;5030717;28;20089;-83
2022/07/25 10:21:11;;;;;;;4.22;2.08;;;25.40;99.90;;;;;;5031590;28;20398;-83
2022/07/25 10:23:37;;;;;;;4.85;2.20;;;25.30;99.90;;;;;;5032146;28;20042;-83
2022/07/25 10:26:12;;;;;;;5.45;2.20;;;25.00;99.90;;;;;;5033202;28;20067;-82
2022/07/25 10:28:46;;;;;;;3.47;2.22;;;25.00;99.90;;;;;;5036683;28;20045;-82
2022/07/25 10:31:26;;;;;;;4.75;2.30;;;24.80;99.90;;;;;;5035018;28;20041;-82
2022/07/25 10:34:03;;;;;;;4.93;2.40;;;24.90;99.90;;;;;;5035248;28;20096;-83
2022/07/25 10:36:50;;;;;;;5.43;2.60;;;24.70;99.90;;;;;;5032146;28;20099;-72
2022/07/25 10:39:17;;;;;;;4.60;2.28;;;24.70;99.90;;;;;;5030822;28;20109;-71
2022/07/25 10:41:53;;;;;;;4.57;2.22;;;24.60;99.90;;;;;;5031274;28;20132;-72
2022/07/25 10:44:19;;;;;;;5.60;2.50;;;24.50;99.90;;;;;;5031101;28;20530;-72
2022/07/25 10:46:45;;;;;;;5.80;2.13;;;24.40;99.90;;;;;;5031053;28;20053;-72
2022/07/25 10:49:25;;;;;;;4.38;2.20;;;24.30;99.90;;;;;;5031443;28;20099;-72
2022/07/25 10:51:56;;;;;;;7.10;2.45;;;24.10;99.90;;;;;;5031633;28;20047;-72
2022/07/25 10:54:22;;;;;;;5.15;2.40;;;24.00;99.90;;;;;;5030986;28;20105;-72
2022/07/25 10:56:58;;;;;;;4.03;2.25;;;24.00;99.90;;;;;;5031641;28;20132;-72
2022/07/25 10:59:37;;;;;;;4.43;2.60;;;24.10;99.90;;;;;;5031606;28;20043;-71
2022/07/25 11:02:08;;;;;;;5.65;2.40;;;24.50;99.90;;;;;;5031676;28;20045;-72
2022/07/25 11:04:34;;;;;;;4.00;2.20;;;25.10;99.90;;;;;;5030852;28;20049;-72
2022/07/25 11:07:12;;;;;;;9.10;2.58;;;25.80;99.90;;;;;;5031388;28;20324;-72
2022/07/25 11:09:39;;;;;;;9.57;2.50;;;26.20;99.90;;;;;;5031227;28;20041;-72
2022/07/25 11:12:05;;;;;;;5.78;2.38;;;26.40;99.90;;;;;;5030841;28;20038;-72
2022/07/25 11:14:41;;;;;;;6.18;2.40;;;26.70;99.90;;;;;;5012607;28;20057;-72
2022/07/25 11:17:17;;;;;;;7.18;2.30;;;26.90;99.90;;;;;;5031220;28;20045;-72
2022/07/25 11:19:51;;;;;;;7.15;2.30;;;26.80;99.90;;;;;;5030486;28;20503;-71
2022/07/25 11:22:17;;;;;;;6.40;2.20;;;26.90;99.90;;;;;;5031551;28;20045;-72
2022/07/25 11:24:45;;;;;;;5.55;2.45;;;27.20;99.90;;;;;;5033252;28;20056;-72
2022/07/25 11:27:21;;;;;;;5.47;2.42;;;27.10;99.90;;;;;;5032747;28;20116;-73
2022/07/25 11:29:47;;;;;;;5.25;2.15;;;26.90;99.90;;;;;;5032998;28;20442;-72
2022/07/25 11:32:12;;;;;;;8.38;2.55;;;26.70;99.90;;;;;;5034045;28;20049;-72
2022/07/25 11:34:47;;;;;;;10.45;2.67;;;26.30;99.90;;;;;;5032304;28;20049;-72
2022/07/25 11:37:13;;;;;;;8.00;2.58;;;26.30;99.90;;;;;;5011791;28;20052;-72
2022/07/25 11:39:41;;;;;;;7.10;2.38;;;26.10;99.90;;;;;;5013502;28;20371;-72
2022/07/25 11:42:09;;;;;;;8.15;2.50;;;26.20;99.90;;;;;;5026939;28;20046;-72
2022/07/25 11:44:35;;;;;;;8.30;2.60;;;26.70;99.90;;;;;;5032838;28;20041;-73
2022/07/25 11:47:02;;;;;;;6.13;2.50;;;27.70;99.90;;;;;;5033381;28;20060;-73
2022/07/25 11:49:27;;;;;;;9.15;2.70;;;28.20;99.90;;;;;;5032222;28;20049;-72
2022/07/25 11:51:53;;;;;;;8.07;2.30;;;28.30;99.90;;;;;;5032511;28;20048;-73
2022/07/25 11:54:19;;;;;;;10.43;2.80;;;27.70;99.90;;;;;;5012752;28;20068;-72
2022/07/25 11:56:46;;;;;;;10.05;2.60;;;27.30;99.90;;;;;;5036778;28;20461;-72
2022/07/25 11:59:12;;;;;;;9.38;2.80;;;26.60;99.90;;;;;;5052994;28;20327;-72
2022/07/25 12:01:40;;;;;;;9.10;2.60;;;26.20;99.90;;;;;;5021179;28;20048;-72
2022/07/25 12:04:18;;;;;;;9.25;2.50;;;26.10;99.90;;;;;;5014340;28;20045;-72
2022/07/25 12:06:49;;;;;;;9.70;2.88;;;26.00;99.90;;;;;;4999120;28;20037;-72
2022/07/25 12:09:20;;;;;;;8.07;2.35;;;26.10;99.90;;;;;;5032348;28;20401;-71
2022/07/25 12:11:48;;;;;;;9.88;2.55;;;26.10;99.90;;;;;;5032433;28;20037;-73
2022/07/25 12:14:14;;;;;;;10.75;2.53;;;26.00;99.90;;;;;;5032373;28;20049;-72
2022/07/25 12:16:40;;;;;;;7.63;2.25;;;26.00;99.90;;;;;;5030985;28;20091;-71
2022/07/25 12:19:17;;;;;;;6.35;2.10;;;25.90;99.90;;;;;;5020431;28;20041;-72
2022/07/25 12:21:43;;;;;;;10.90;2.40;;;25.80;99.90;;;;;;5028160;28;20041;-85
2022/07/25 12:24:09;;;;;;;9.02;2.30;;;25.60;99.90;;;;;;5021851;28;20493;-86
2022/07/25 12:26:34;;;;;;;7.97;2.20;;;25.10;99.90;;;;;;5024387;28;20425;-85
2022/07/25 12:29:00;;;;;;;8.52;2.22;;;25.10;99.90;;;;;;5051069;28;20041;-85
2022/07/25 12:31:27;;;;;;;9.18;2.50;;;25.30;99.90;;;;;;5039009;28;20041;-86
2022/07/25 12:33:53;;;;;;;7.95;2.08;;;25.40;99.90;;;;;;5032303;28;20050;-85
2022/07/25 12:36:19;;;;;;;6.05;2.10;;;25.40;99.90;;;;;;5016118;28;20048;-86
2022/07/25 12:38:45;;;;;;;10.55;2.00;;;25.30;99.90;;;;;;5040438;28;20033;-85
2022/07/25 12:41:10;;;;;;;5.50;1.85;;;25.20;99.90;;;;;;5053553;28;20462;-86
2022/07/25 12:43:36;;;;;;;5.70;1.88;;;25.10;99.90;;;;;;5051834;28;20040;-85